Time;durP1;ratioP1;P1;durP2;ratioP2;P2;SDS_P1;SDS_P2;PMS_P1;PMS_P2;Temp;Humidity;BMP_temperature;BMP_pressure;BME280_temperature;BME280_humidity;BME280_pressure;Samples;Min_cycle;Max_cycle;Signal;HPM_P1;HPM_P2
2023/07/15 00:00:43;;;;;;;4.53;2.17;;;;;;;;;;5078631;28;20052;-79
2023/07/15 00:03:10;;;;;;;3.88;2.10;;;;;;;;;;5078915;28;20056;-80
2023/07/15 00:05:39;;;;;;;4.55;2.33;;;;;;;;;;5071389;28;20060;-79
2023/07/15 00:08:06;;;;;;;3.75;2.17;;;;;;;;;;5078938;28;20467;-80
2023/07/15 00:10:34;;;;;;;4.78;1.90;;;;;;;;;;5080179;28;20322;-79
2023/07/15 00:13:01;;;;;;;7.35;2.25;;;;;;;;;;5080155;28;20314;-79
2023/07/15 00:15:28;;;;;;;7.28;2.17;;;;;;;;;;5079014;28;20052;-77
2023/07/15 00:17:55;;;;;;;4.05;1.88;;;;;;;;;;5085340;28;20138;-81
2023/07/15 00:20:21;;;;;;;6.00;2.30;;;;;;;;;;5080501;28;20045;-78
2023/07/15 00:22:49;;;;;;;4.38;2.53;;;;;;;;;;5080160;28;20093;-78
2023/07/15 00:25:24;;;;;;;8.45;2.53;;;;;;;;;;5070761;28;20045;-79
2023/07/15 00:27:55;;;;;;;5.78;2.28;;;;;;;;;;5059229;28;20487;-78
2023/07/15 00:30:22;;;;;;;6.93;2.50;;;;;;;;;;5059545;28;20053;-79
2023/07/15 00:32:52;;;;;;;5.50;2.67;;;;;;;;;;5060230;28;20045;-78
2023/07/15 00:35:28;;;;;;;10.57;3.92;;;;;;;;;;5056835;28;20053;-79
2023/07/15 00:37:55;;;;;;;9.70;4.43;;;;;;;;;;5056489;28;20047;-78
2023/07/15 00:40:25;;;;;;;7.18;3.47;;;;;;;;;;5057263;28;20049;-77
2023/07/15 00:43:10;;;;;;;5.88;3.10;;;;;;;;;;5053979;28;20045;-78
2023/07/15 00:45:37;;;;;;;5.93;2.35;;;;;;;;;;5059747;28;20073;-79
2023/07/15 00:48:13;;;;;;;10.35;2.35;;;;;;;;;;5059746;28;20059;-78
2023/07/15 00:50:42;;;;;;;5.90;2.03;;;;;;;;;;5059839;28;20124;-78
2023/07/15 00:53:10;;;;;;;4.97;2.20;;;;;;;;;;5058667;28;20148;-77
2023/07/15 00:55:37;;;;;;;5.78;2.28;;;;;;;;;;5056869;28;22081;-78
2023/07/15 00:58:06;;;;;;;8.40;2.60;;;;;;;;;;5060535;28;20128;-79
2023/07/15 01:00:33;;;;;;;4.18;2.30;;;;;;;;;;5058555;28;20106;-78
2023/07/15 01:03:00;;;;;;;4.43;2.28;;;;;;;;;;5057065;28;20048;-78
2023/07/15 01:05:27;;;;;;;4.20;2.58;;;;;;;;;;5056075;28;20076;-79
2023/07/15 01:07:59;;;;;;;4.18;2.13;;;;;;;;;;5053022;28;20044;-79
2023/07/15 01:10:26;;;;;;;3.00;1.90;;;;;;;;;;5053452;28;20056;-78
2023/07/15 01:12:53;;;;;;;3.13;2.10;;;;;;;;;;5042681;28;20055;-79
2023/07/15 01:15:19;;;;;;;4.72;2.22;;;;;;;;;;5059144;28;20435;-79
2023/07/15 01:17:46;;;;;;;4.07;2.13;;;;;;;;;;5058363;28;20041;-78
2023/07/15 01:20:16;;;;;;;5.07;2.40;;;;;;;;;;5059664;28;20071;-78
2023/07/15 01:22:43;;;;;;;3.67;2.20;;;;;;;;;;5061002;28;20045;-77
2023/07/15 01:25:12;;;;;;;3.90;1.88;;;;;;;;;;5056528;28;20062;-78
2023/07/15 01:27:42;;;;;;;3.35;2.17;;;;;;;;;;5055510;28;20107;-78
2023/07/15 01:30:09;;;;;;;5.47;1.80;;;;;;;;;;5055282;28;20045;-77
2023/07/15 01:32:36;;;;;;;4.32;2.45;;;;;;;;;;5056683;28;20049;-79
2023/07/15 01:35:04;;;;;;;9.15;2.58;;;;;;;;;;5055663;28;20056;-80
2023/07/15 01:37:30;;;;;;;7.88;2.35;;;;;;;;;;5056267;28;20041;-80
2023/07/15 01:39:57;;;;;;;7.38;2.28;;;;;;;;;;5045992;28;20047;-80
2023/07/15 01:42:24;;;;;;;5.00;2.28;;;;;;;;;;5079766;28;20075;-79
2023/07/15 01:44:51;;;;;;;3.38;1.88;;;;;;;;;;5079035;28;20040;-78
2023/07/15 01:47:17;;;;;;;6.47;2.25;;;;;;;;;;5074796;28;20123;-79
2023/07/15 01:49:47;;;;;;;10.20;2.53;;;;;;;;;;5078942;28;20044;-78
2023/07/15 01:52:14;;;;;;;5.90;2.25;;;;;;;;;;5062585;28;20052;-77
2023/07/15 01:54:41;;;;;;;6.28;2.20;;;;;;;;;;5075707;28;20059;-81
2023/07/15 01:57:09;;;;;;;3.97;2.10;;;;;;;;;;5078249;28;20056;-79
2023/07/15 01:59:38;;;;;;;4.57;2.40;;;;;;;;;;5077986;28;20125;-80
2023/07/15 02:02:05;;;;;;;5.32;2.15;;;;;;;;;;5078563;28;20040;-79
2023/07/15 02:04:31;;;;;;;5.88;2.13;;;;;;;;;;5081056;28;20090;-78
2023/07/15 02:06:58;;;;;;;5.47;2.40;;;;;;;;;;5081855;28;20590;-79
2023/07/15 02:09:27;;;;;;;5.00;2.47;;;;;;;;;;5080179;28;20048;-79
2023/07/15 02:11:57;;;;;;;7.28;2.50;;;;;;;;;;5078253;28;20045;-80
2023/07/15 02:14:26;;;;;;;4.80;2.20;;;;;;;;;;5079868;28;20090;-79
2023/07/15 02:17:01;;;;;;;4.88;2.35;;;;;;;;;;5075707;28;20104;-81
2023/07/15 02:19:28;;;;;;;6.38;2.28;;;;;;;;;;5080428;28;20055;-80
2023/07/15 02:21:54;;;;;;;4.47;2.30;;;;;;;;;;5084861;28;20067;-80
2023/07/15 02:24:23;;;;;;;7.00;2.45;;;;;;;;;;5083693;28;20070;-80
2023/07/15 02:26:49;;;;;;;5.30;2.17;;;;;;;;;;5079604;28;20063;-80
2023/07/15 02:29:16;;;;;;;4.38;2.30;;;;;;;;;;5076685;28;20079;-80
2023/07/15 02:31:42;;;;;;;8.15;2.70;;;;;;;;;;5063931;28;20045;-80
2023/07/15 02:34:09;;;;;;;4.05;2.42;;;;;;;;;;5061267;28;20046;-80
2023/07/15 02:36:36;;;;;;;5.53;2.53;;;;;;;;;;5062419;28;20041;-78
2023/07/15 02:39:10;;;;;;;6.97;2.58;;;;;;;;;;5076518;28;20065;-80
2023/07/15 02:41:36;;;;;;;4.50;2.58;;;;;;;;;;5083094;28;20036;-78
2023/07/15 02:44:03;;;;;;;5.03;2.45;;;;;;;;;;5084185;28;20048;-79
2023/07/15 02:46:30;;;;;;;3.75;2.55;;;;;;;;;;5083316;28;20108;-80
2023/07/15 02:48:57;;;;;;;9.95;2.72;;;;;;;;;;5084743;28;20060;-80
2023/07/15 02:51:24;;;;;;;6.20;2.67;;;;;;;;;;5082903;28;20101;-79
2023/07/15 02:53:51;;;;;;;5.15;2.72;;;;;;;;;;5081700;28;20137;-79
2023/07/15 02:56:18;;;;;;;5.00;2.55;;;;;;;;;;5078082;28;20167;-79
2023/07/15 02:58:45;;;;;;;9.93;2.70;;;;;;;;;;5072079;28;20075;-77
2023/07/15 03:01:11;;;;;;;5.05;2.58;;;;;;;;;;5075910;28;20054;-79
2023/07/15 03:03:38;;;;;;;4.38;2.60;;;;;;;;;;5076212;28;20055;-77
2023/07/15 03:06:05;;;;;;;3.70;2.40;;;;;;;;;;5075751;28;20041;-79
2023/07/15 03:08:31;;;;;;;6.60;2.50;;;;;;;;;;5082331;28;20531;-79
2023/07/15 03:10:58;;;;;;;4.20;2.50;;;;;;;;;;5080007;28;20088;-79
2023/07/15 03:13:25;;;;;;;10.10;2.90;;;;;;;;;;5080586;28;20045;-77
2023/07/15 03:15:52;;;;;;;7.55;2.47;;;;;;;;;;5078993;28;20052;-79
2023/07/15 03:18:21;;;;;;;3.90;2.50;;;;;;;;;;5082243;28;20055;-80
2023/07/15 03:20:48;;;;;;;8.43;2.90;;;;;;;;;;5081607;28;20468;-78
2023/07/15 03:23:15;;;;;;;5.20;3.10;;;;;;;;;;5083809;28;20071;-79
2023/07/15 03:25:41;;;;;;;6.47;2.83;;;;;;;;;;5081823;28;20115;-77
2023/07/15 03:28:08;;;;;;;7.60;2.83;;;;;;;;;;5081198;28;20098;-79
2023/07/15 03:30:34;;;;;;;4.60;2.55;;;;;;;;;;5080484;28;20052;-79
2023/07/15 03:33:01;;;;;;;5.85;2.58;;;;;;;;;;5081851;28;20074;-79
2023/07/15 03:35:28;;;;;;;4.85;2.42;;;;;;;;;;5065532;28;20041;-78
2023/07/15 03:37:55;;;;;;;7.78;2.90;;;;;;;;;;5076915;28;20064;-81
2023/07/15 03:40:22;;;;;;;7.95;2.65;;;;;;;;;;5062133;28;20049;-78
2023/07/15 03:42:48;;;;;;;4.90;2.42;;;;;;;;;;5061463;28;20037;-80
2023/07/15 03:45:15;;;;;;;7.78;2.47;;;;;;;;;;5062952;28;20040;-79
2023/07/15 03:47:44;;;;;;;8.82;2.83;;;;;;;;;;5062146;28;20049;-80
2023/07/15 03:50:11;;;;;;;7.00;2.70;;;;;;;;;;5062574;28;20033;-80
2023/07/15 03:52:38;;;;;;;5.25;2.60;;;;;;;;;;5062501;28;20048;-80
2023/07/15 03:55:05;;;;;;;4.78;2.58;;;;;;;;;;5062782;28;20108;-80
2023/07/15 03:57:33;;;;;;;6.70;3.03;;;;;;;;;;5061195;28;20063;-80
2023/07/15 03:59:59;;;;;;;7.65;2.33;;;;;;;;;;5062346;28;20040;-79
2023/07/15 04:02:27;;;;;;;6.13;2.60;;;;;;;;;;5061107;28;20068;-80
2023/07/15 04:04:54;;;;;;;4.72;3.20;;;;;;;;;;5062419;28;20072;-79
2023/07/15 04:07:23;;;;;;;5.20;2.90;;;;;;;;;;5061242;28;20457;-78
2023/07/15 04:09:50;;;;;;;7.78;2.90;;;;;;;;;;5063448;28;20090;-80
2023/07/15 04:12:17;;;;;;;7.47;2.95;;;;;;;;;;5064766;28;20035;-80
2023/07/15 04:14:43;;;;;;;5.75;2.80;;;;;;;;;;5055424;28;20125;-81
2023/07/15 04:17:13;;;;;;;9.45;2.88;;;;;;;;;;5054192;28;20052;-79
2023/07/15 04:19:43;;;;;;;5.90;2.80;;;;;;;;;;5052031;28;20224;-79
2023/07/15 04:22:11;;;;;;;7.20;2.88;;;;;;;;;;5052523;28;20410;-78
2023/07/15 04:24:38;;;;;;;5.55;2.58;;;;;;;;;;5062610;28;20076;-78
2023/07/15 04:27:05;;;;;;;5.55;2.70;;;;;;;;;;5061851;28;20045;-80
2023/07/15 04:29:31;;;;;;;5.35;2.58;;;;;;;;;;5057587;28;20057;-79
2023/07/15 04:31:58;;;;;;;6.22;2.88;;;;;;;;;;5055043;28;20098;-79
2023/07/15 04:34:24;;;;;;;4.68;2.40;;;;;;;;;;5057420;28;20194;-79
2023/07/15 04:36:51;;;;;;;5.18;2.90;;;;;;;;;;5056195;28;20048;-79
2023/07/15 04:39:17;;;;;;;4.45;2.63;;;;;;;;;;5071431;28;20048;-80
2023/07/15 04:41:44;;;;;;;7.57;2.90;;;;;;;;;;5075025;28;20075;-79
2023/07/15 04:44:11;;;;;;;5.88;2.92;;;;;;;;;;5074610;28;20056;-81
2023/07/15 04:46:37;;;;;;;5.07;2.50;;;;;;;;;;5076455;28;20055;-80
2023/07/15 04:49:04;;;;;;;4.70;2.53;;;;;;;;;;5076445;28;20040;-81
2023/07/15 04:51:30;;;;;;;5.10;2.47;;;;;;;;;;5076012;28;20053;-79
2023/07/15 04:53:57;;;;;;;7.45;2.92;;;;;;;;;;5077429;28;20052;-80
2023/07/15 04:56:24;;;;;;;6.32;2.70;;;;;;;;;;5075615;28;20056;-80
2023/07/15 04:58:54;;;;;;;4.93;2.70;;;;;;;;;;5078242;28;20067;-79
2023/07/15 05:01:22;;;;;;;5.72;2.20;;;;;;;;;;5067718;28;20115;-78
2023/07/15 05:03:49;;;;;;;4.75;2.28;;;;;;;;;;5076930;28;20064;-80
2023/07/15 05:06:15;;;;;;;4.20;2.10;;;;;;;;;;5078276;28;20044;-80
2023/07/15 05:08:42;;;;;;;7.68;2.08;;;;;;;;;;5078441;28;20124;-78
2023/07/15 05:11:08;;;;;;;4.45;2.28;;;;;;;;;;5076765;28;20051;-79
2023/07/15 05:13:35;;;;;;;4.88;2.30;;;;;;;;;;5080788;28;20071;-79
2023/07/15 05:16:03;;;;;;;4.10;1.80;;;;;;;;;;5075899;28;20486;-79
2023/07/15 05:18:29;;;;;;;4.90;1.70;;;;;;;;;;5075490;28;20773;-77
2023/07/15 05:20:57;;;;;;;5.50;1.70;;;;;;;;;;5072741;28;20063;-78
2023/07/15 05:23:24;;;;;;;3.17;1.77;;;;;;;;;;5079554;28;20127;-79
2023/07/15 05:25:51;;;;;;;3.25;1.50;;;;;;;;;;5077975;28;20055;-80
2023/07/15 05:28:18;;;;;;;3.70;1.60;;;;;;;;;;5080042;28;20049;-78
2023/07/15 05:30:44;;;;;;;3.15;1.63;;;;;;;;;;5079526;28;20055;-79
2023/07/15 05:33:11;;;;;;;4.18;1.60;;;;;;;;;;5080287;28;20071;-80
2023/07/15 05:35:37;;;;;;;4.80;1.77;;;;;;;;;;5080739;28;20236;-80
2023/07/15 05:38:07;;;;;;;3.95;1.60;;;;;;;;;;5074134;28;20045;-79
2023/07/15 05:40:33;;;;;;;6.47;1.55;;;;;;;;;;5057875;28;20106;-81
2023/07/15 05:43:00;;;;;;;3.00;1.65;;;;;;;;;;5058579;28;20136;-79
2023/07/15 05:45:32;;;;;;;3.63;1.60;;;;;;;;;;5059227;28;20072;-79
2023/07/15 05:47:59;;;;;;;2.10;1.38;;;;;;;;;;5058929;28;20040;-80
2023/07/15 05:50:26;;;;;;;2.80;1.67;;;;;;;;;;5060033;28;20530;-80
2023/07/15 05:52:53;;;;;;;2.42;1.42;;;;;;;;;;5058232;28;20041;-80
2023/07/15 05:55:19;;;;;;;4.47;1.88;;;;;;;;;;5059635;28;20082;-79
2023/07/15 05:57:46;;;;;;;1.88;1.30;;;;;;;;;;5058900;28;20041;-79
2023/07/15 06:00:14;;;;;;;3.15;1.52;;;;;;;;;;5059779;28;20087;-81
2023/07/15 06:02:40;;;;;;;4.55;1.50;;;;;;;;;;5060235;28;20220;-81
2023/07/15 06:05:07;;;;;;;3.70;1.30;;;;;;;;;;5061849;28;20044;-80
2023/07/15 06:07:34;;;;;;;2.92;1.73;;;;;;;;;;5060821;28;20057;-81
2023/07/15 06:10:01;;;;;;;9.82;1.73;;;;;;;;;;5059136;28;20064;-80
2023/07/15 06:12:27;;;;;;;3.65;1.45;;;;;;;;;;5059618;28;20053;-79
2023/07/15 06:14:54;;;;;;;4.68;1.85;;;;;;;;;;5061429;28;20177;-78
2023/07/15 06:17:21;;;;;;;4.13;1.40;;;;;;;;;;5061030;28;20061;-81
2023/07/15 06:19:47;;;;;;;2.92;1.70;;;;;;;;;;5062275;28;20450;-80
2023/07/15 06:22:14;;;;;;;2.75;1.42;;;;;;;;;;5062161;28;20219;-81
2023/07/15 06:24:41;;;;;;;2.60;1.60;;;;;;;;;;5062748;28;20390;-81
2023/07/15 06:27:07;;;;;;;2.38;1.33;;;;;;;;;;5062691;28;20037;-80
2023/07/15 06:29:34;;;;;;;3.00;1.40;;;;;;;;;;5066735;28;20033;-79
2023/07/15 06:32:01;;;;;;;4.10;1.63;;;;;;;;;;5067936;28;20037;-81
2023/07/15 06:34:27;;;;;;;4.47;1.50;;;;;;;;;;5061921;28;20102;-79
2023/07/15 06:36:54;;;;;;;3.45;1.50;;;;;;;;;;5059582;28;20128;-78
2023/07/15 06:39:21;;;;;;;3.47;1.67;;;;;;;;;;5075620;28;20070;-79
2023/07/15 06:41:49;;;;;;;5.70;1.80;;;;;;;;;;5080195;28;20553;-80
2023/07/15 06:44:18;;;;;;;4.07;1.50;;;;;;;;;;5078744;28;20441;-79
2023/07/15 06:46:45;;;;;;;2.80;1.70;;;;;;;;;;5078980;28;20417;-78
2023/07/15 06:49:12;;;;;;;2.97;1.42;;;;;;;;;;5080518;28;20044;-80
2023/07/15 06:51:38;;;;;;;3.28;1.52;;;;;;;;;;5083502;28;20199;-80
2023/07/15 06:54:08;;;;;;;3.90;1.45;;;;;;;;;;5082150;28;20037;-78
2023/07/15 06:56:35;;;;;;;3.50;1.70;;;;;;;;;;5084690;28;20060;-80
2023/07/15 06:59:02;;;;;;;2.97;1.52;;;;;;;;;;5081778;28;20517;-79
2023/07/15 07:01:29;;;;;;;4.38;1.90;;;;;;;;;;5079549;28;20049;-79
2023/07/15 07:03:56;;;;;;;2.25;1.38;;;;;;;;;;5078694;28;20047;-79
2023/07/15 07:06:23;;;;;;;2.67;1.45;;;;;;;;;;5083414;28;20296;-79
2023/07/15 07:08:49;;;;;;;1.98;1.33;;;;;;;;;;5083914;28;20062;-80
2023/07/15 07:11:16;;;;;;;2.55;1.50;;;;;;;;;;5085772;28;20056;-79
2023/07/15 07:13:43;;;;;;;3.53;1.65;;;;;;;;;;5084005;28;20040;-82
2023/07/15 07:16:11;;;;;;;3.25;1.58;;;;;;;;;;5085070;28;20105;-80
2023/07/15 07:18:37;;;;;;;3.45;1.52;;;;;;;;;;5085528;28;20060;-82
2023/07/15 07:21:04;;;;;;;3.53;1.42;;;;;;;;;;5085211;28;20045;-79
2023/07/15 07:23:31;;;;;;;2.58;1.35;;;;;;;;;;5086959;28;20060;-81
2023/07/15 07:25:59;;;;;;;3.75;1.40;;;;;;;;;;5086550;28;20060;-81
2023/07/15 07:28:46;;;;;;;1.67;1.35;;;;;;;;;;5085156;28;20049;-81
2023/07/15 07:31:13;;;;;;;3.45;1.52;;;;;;;;;;5085895;28;20051;-79
2023/07/15 07:33:41;;;;;;;3.42;1.35;;;;;;;;;;5086527;28;20032;-81
2023/07/15 07:36:07;;;;;;;2.55;1.42;;;;;;;;;;5084865;28;20059;-80
2023/07/15 07:38:34;;;;;;;2.35;1.50;;;;;;;;;;5069050;28;20048;-80
2023/07/15 07:41:10;;;;;;;2.38;1.58;;;;;;;;;;5082052;28;20040;-78
2023/07/15 07:43:38;;;;;;;5.45;1.58;;;;;;;;;;5087672;28;20049;-78
2023/07/15 07:46:08;;;;;;;2.47;1.50;;;;;;;;;;5086352;28;20041;-80
2023/07/15 07:48:34;;;;;;;3.83;1.35;;;;;;;;;;5086055;28;20055;-80
2023/07/15 07:51:01;;;;;;;2.58;1.45;;;;;;;;;;5068809;28;20055;-81
2023/07/15 07:53:28;;;;;;;3.38;1.45;;;;;;;;;;5085137;28;20044;-80
2023/07/15 07:55:55;;;;;;;1.90;1.38;;;;;;;;;;5084397;28;20507;-81
2023/07/15 07:58:21;;;;;;;2.65;1.13;;;;;;;;;;5084910;28;20064;-82
2023/07/15 08:00:48;;;;;;;4.47;1.40;;;;;;;;;;5085247;28;20100;-81
2023/07/15 08:03:15;;;;;;;2.08;1.38;;;;;;;;;;5084642;28;20048;-80
2023/07/15 08:05:50;;;;;;;3.55;1.73;;;;;;;;;;5084518;28;20036;-81
2023/07/15 08:08:17;;;;;;;1.90;1.30;;;;;;;;;;5084163;28;20060;-81
2023/07/15 08:10:44;;;;;;;2.72;1.30;;;;;;;;;;5082695;28;20147;-80
2023/07/15 08:13:10;;;;;;;2.13;1.23;;;;;;;;;;5084689;28;20044;-80
2023/07/15 08:15:37;;;;;;;3.03;1.35;;;;;;;;;;5084452;28;20044;-80
2023/07/15 08:18:04;;;;;;;1.58;1.25;;;;;;;;;;5084992;28;20075;-80
2023/07/15 08:20:32;;;;;;;1.55;1.33;;;;;;;;;;5084754;28;20115;-80
2023/07/15 08:22:59;;;;;;;3.17;1.58;;;;;;;;;;5084377;28;20231;-81
2023/07/15 08:25:26;;;;;;;2.53;1.42;;;;;;;;;;5082982;28;20051;-81
2023/07/15 08:27:53;;;;;;;2.42;1.25;;;;;;;;;;5082797;28;20040;-78
2023/07/15 08:30:22;;;;;;;1.60;1.40;;;;;;;;;;5083689;28;20045;-81
2023/07/15 08:32:49;;;;;;;3.17;1.17;;;;;;;;;;5083585;28;20046;-79
2023/07/15 08:35:16;;;;;;;2.65;1.20;;;;;;;;;;5084095;28;20055;-82
2023/07/15 08:37:43;;;;;;;2.15;1.30;;;;;;;;;;5080581;28;20059;-80
2023/07/15 08:40:11;;;;;;;2.97;1.48;;;;;;;;;;5063035;28;20048;-80
2023/07/15 08:42:38;;;;;;;3.30;1.35;;;;;;;;;;5063828;28;20053;-79
2023/07/15 08:45:04;;;;;;;4.82;1.50;;;;;;;;;;5063687;28;20044;-80
2023/07/15 08:47:31;;;;;;;3.28;1.45;;;;;;;;;;5063885;28;20041;-81
2023/07/15 08:50:01;;;;;;;1.77;1.40;;;;;;;;;;5063032;28;20106;-80
2023/07/15 08:52:29;;;;;;;2.47;1.30;;;;;;;;;;5063397;28;20085;-80
2023/07/15 08:54:56;;;;;;;3.05;1.42;;;;;;;;;;5063541;28;20071;-80
2023/07/15 08:57:23;;;;;;;2.15;1.50;;;;;;;;;;5062771;28;20049;-80
2023/07/15 08:59:51;;;;;;;2.45;1.40;;;;;;;;;;5063787;28;20210;-80
2023/07/15 09:02:18;;;;;;;3.28;1.38;;;;;;;;;;5062785;28;20059;-79
2023/07/15 09:04:44;;;;;;;3.47;1.80;;;;;;;;;;5063468;28;20104;-79
2023/07/15 09:07:14;;;;;;;4.72;1.55;;;;;;;;;;5063143;28;20057;-81
2023/07/15 09:09:41;;;;;;;2.35;1.30;;;;;;;;;;5062236;28;20075;-80
2023/07/15 09:12:11;;;;;;;3.78;1.40;;;;;;;;;;5062824;28;20114;-79
2023/07/15 09:14:41;;;;;;;2.88;1.40;;;;;;;;;;5063962;28;20067;-81
2023/07/15 09:17:24;;;;;;;2.33;1.27;;;;;;;;;;5062637;28;20064;-80
2023/07/15 09:19:51;;;;;;;2.25;1.50;;;;;;;;;;5059959;28;20597;-79
2023/07/15 09:22:18;;;;;;;2.22;1.60;;;;;;;;;;5061916;28;20045;-80
2023/07/15 09:24:45;;;;;;;2.83;1.13;;;;;;;;;;5054465;28;20132;-79
2023/07/15 09:27:13;;;;;;;2.53;1.35;;;;;;;;;;5053886;28;20083;-80
2023/07/15 09:29:40;;;;;;;4.57;1.45;;;;;;;;;;5056145;28;20073;-80
2023/07/15 09:32:10;;;;;;;3.50;1.30;;;;;;;;;;5059151;28;20067;-80
2023/07/15 09:34:40;;;;;;;2.72;1.58;;;;;;;;;;5060341;28;20045;-80
2023/07/15 09:37:07;;;;;;;2.25;1.20;;;;;;;;;;5057868;28;20124;-81
2023/07/15 09:39:33;;;;;;;1.73;1.30;;;;;;;;;;5077608;28;20051;-81
2023/07/15 09:42:00;;;;;;;3.88;1.20;;;;;;;;;;5081440;28;20049;-81
2023/07/15 09:44:33;;;;;;;2.00;1.13;;;;;;;;;;5079981;28;20048;-81
2023/07/15 09:47:01;;;;;;;1.48;1.27;;;;;;;;;;5082616;28;20092;-82
2023/07/15 09:49:27;;;;;;;3.63;1.50;;;;;;;;;;5085269;28;20075;-81
2023/07/15 09:51:54;;;;;;;1.95;1.40;;;;;;;;;;5088385;28;20041;-80
2023/07/15 09:54:22;;;;;;;1.65;1.35;;;;;;;;;;5088113;28;20147;-79
2023/07/15 09:56:49;;;;;;;2.38;1.42;;;;;;;;;;5082289;28;20048;-80
2023/07/15 09:59:21;;;;;;;1.38;1.27;;;;;;;;;;5079242;28;20044;-80
2023/07/15 10:01:49;;;;;;;1.85;1.27;;;;;;;;;;5080237;28;20267;-80
2023/07/15 10:04:19;;;;;;;2.80;1.20;;;;;;;;;;5079480;28;20115;-80
2023/07/15 10:06:46;;;;;;;2.00;1.27;;;;;;;;;;5081483;28;20059;-79
2023/07/15 10:09:14;;;;;;;1.98;1.20;;;;;;;;;;5078566;28;20052;-80
2023/07/15 10:11:40;;;;;;;1.33;1.20;;;;;;;;;;5081511;28;20036;-81
2023/07/15 10:14:08;;;;;;;2.28;1.35;;;;;;;;;;5080432;28;20048;-81
2023/07/15 10:16:35;;;;;;;1.38;1.27;;;;;;;;;;5080039;28;20059;-81
2023/07/15 10:19:01;;;;;;;1.70;1.30;;;;;;;;;;5079693;28;20044;-80
2023/07/15 10:21:28;;;;;;;1.65;1.15;;;;;;;;;;5078036;28;20060;-78
2023/07/15 10:24:05;;;;;;;1.30;0.90;;;;;;;;;;5079503;28;20127;-79
2023/07/15 10:26:32;;;;;;;1.80;0.90;;;;;;;;;;5075404;28;20376;-79
2023/07/15 10:29:01;;;;;;;1.00;0.90;;;;;;;;;;5079090;28;20055;-78
2023/07/15 10:31:27;;;;;;;1.40;1.10;;;;;;;;;;5079791;28;20113;-79
2023/07/15 10:33:59;;;;;;;1.13;1.02;;;;;;;;;;5080374;28;20486;-80
2023/07/15 10:36:35;;;;;;;3.17;1.33;;;;;;;;;;5081164;28;20056;-81
2023/07/15 10:39:22;;;;;;;1.85;1.10;;;;;;;;;;5067150;28;20132;-79
2023/07/15 10:41:51;;;;;;;4.85;1.08;;;;;;;;;;5067167;28;20044;-79
2023/07/15 10:44:19;;;;;;;1.25;1.00;;;;;;;;;;5066321;28;20121;-81
2023/07/15 10:46:46;;;;;;;1.35;1.10;;;;;;;;;;5066511;28;20068;-79
2023/07/15 10:49:13;;;;;;;1.20;0.88;;;;;;;;;;5045759;28;20042;-80
2023/07/15 10:51:40;;;;;;;1.38;0.93;;;;;;;;;;5030028;28;20061;-79
2023/07/15 10:54:07;;;;;;;1.30;1.05;;;;;;;;;;5042290;28;20132;-79
2023/07/15 10:56:34;;;;;;;1.55;1.17;;;;;;;;;;5022095;28;20041;-79
2023/07/15 10:59:01;;;;;;;2.35;1.23;;;;;;;;;;5022212;28;20109;-81
2023/07/15 11:01:27;;;;;;;1.33;0.93;;;;;;;;;;5041379;28;20041;-79
2023/07/15 11:04:01;;;;;;;1.30;1.10;;;;;;;;;;5024427;28;20044;-80
2023/07/15 11:06:28;;;;;;;1.30;1.20;;;;;;;;;;5041690;28;20072;-77
2023/07/15 11:08:55;;;;;;;2.13;1.13;;;;;;;;;;5041260;28;20053;-80
2023/07/15 11:11:22;;;;;;;2.80;1.10;;;;;;;;;;5040168;28;20114;-80
2023/07/15 11:13:49;;;;;;;1.10;1.00;;;;;;;;;;5042179;28;20061;-79
2023/07/15 11:16:16;;;;;;;1.45;1.30;;;;;;;;;;5039520;28;20395;-79
2023/07/15 11:18:43;;;;;;;1.75;1.30;;;;;;;;;;5042198;28;20091;-80
2023/07/15 11:21:09;;;;;;;1.30;0.95;;;;;;;;;;5040709;28;20037;-80
2023/07/15 11:23:36;;;;;;;3.45;1.30;;;;;;;;;;5040524;28;20042;-79
2023/07/15 11:26:09;;;;;;;1.30;1.10;;;;;;;;;;5040009;28;20064;-80
2023/07/15 11:28:47;;;;;;;2.80;1.20;;;;;;;;;;5042793;28;20049;-79
2023/07/15 11:31:14;;;;;;;2.40;1.30;;;;;;;;;;5039882;28;20068;-79
2023/07/15 11:33:41;;;;;;;1.13;1.02;;;;;;;;;;5041547;28;20046;-81
2023/07/15 11:36:07;;;;;;;3.25;1.23;;;;;;;;;;5038883;28;20048;-78
2023/07/15 11:38:34;;;;;;;2.17;1.20;;;;;;;;;;5051844;28;20045;-81
2023/07/15 11:41:00;;;;;;;1.35;1.20;;;;;;;;;;5061719;28;20593;-81
2023/07/15 11:43:28;;;;;;;1.10;1.00;;;;;;;;;;5061834;28;20071;-80
2023/07/15 11:45:55;;;;;;;1.65;1.17;;;;;;;;;;5061161;28;20558;-79
2023/07/15 11:48:25;;;;;;;1.83;1.30;;;;;;;;;;5061078;28;20045;-81
2023/07/15 11:51:07;;;;;;;1.50;1.20;;;;;;;;;;5078008;28;20105;-80
2023/07/15 11:53:35;;;;;;;1.50;1.20;;;;;;;;;;5080324;28;20078;-77
2023/07/15 11:56:02;;;;;;;2.65;1.10;;;;;;;;;;5080139;28;20498;-80
2023/07/15 11:58:56;;;;;;;1.33;1.20;;;;;;;;;;5083481;28;20072;-80
2023/07/15 12:01:23;;;;;;;3.92;1.65;;;;;;;;;;5076325;28;20048;-81
2023/07/15 12:03:50;;;;;;;1.65;1.50;;;;;;;;;;5083336;28;20406;-80
2023/07/15 12:06:17;;;;;;;1.60;1.40;;;;;;;;;;5081634;28;20044;-79
2023/07/15 12:09:04;;;;;;;1.50;1.40;;;;;;;;;;5081483;28;20055;-80
2023/07/15 12:11:32;;;;;;;2.90;1.38;;;;;;;;;;5077890;28;20055;-79
2023/07/15 12:14:01;;;;;;;1.33;1.20;;;;;;;;;;5077881;28;20055;-79
2023/07/15 12:16:29;;;;;;;2.35;1.42;;;;;;;;;;5076915;28;20052;-78
2023/07/15 12:18:56;;;;;;;1.70;1.42;;;;;;;;;;5078761;28;20040;-79
2023/07/15 12:21:27;;;;;;;2.25;1.38;;;;;;;;;;5081762;28;20060;-82
2023/07/15 12:23:56;;;;;;;1.60;1.40;;;;;;;;;;5079530;28;20108;-82
2023/07/15 12:26:23;;;;;;;1.65;1.45;;;;;;;;;;5078733;28;20049;-80
2023/07/15 12:28:50;;;;;;;1.50;1.40;;;;;;;;;;5081621;28;20064;-79
2023/07/15 12:31:17;;;;;;;3.78;1.60;;;;;;;;;;5081282;28;20040;-79
2023/07/15 12:33:44;;;;;;;2.72;1.38;;;;;;;;;;5082131;28;20044;-79
2023/07/15 12:36:15;;;;;;;2.50;1.58;;;;;;;;;;5082135;28;20606;-81
2023/07/15 12:38:43;;;;;;;5.40;1.90;;;;;;;;;;5080057;28;20066;-81
2023/07/15 12:41:10;;;;;;;1.63;1.42;;;;;;;;;;5078050;28;20055;-80
2023/07/15 12:43:38;;;;;;;3.28;1.65;;;;;;;;;;5080388;28;20040;-80
2023/07/15 12:46:04;;;;;;;2.00;1.52;;;;;;;;;;5079626;28;20147;-81
2023/07/15 12:48:32;;;;;;;1.92;1.40;;;;;;;;;;5078286;28;20089;-80
2023/07/15 12:50:58;;;;;;;1.40;1.30;;;;;;;;;;5078841;28;20052;-78
2023/07/15 12:53:25;;;;;;;1.60;1.30;;;;;;;;;;5061592;28;20052;-79
2023/07/15 12:55:54;;;;;;;2.50;1.20;;;;;;;;;;5058825;28;20102;-79
2023/07/15 12:58:21;;;;;;;1.40;1.30;;;;;;;;;;5062676;28;20048;-80
2023/07/15 13:00:48;;;;;;;1.63;1.30;;;;;;;;;;5060068;28;20045;-79
2023/07/15 13:03:15;;;;;;;1.35;1.25;;;;;;;;;;5059294;28;20064;-79
2023/07/15 13:05:42;;;;;;;1.60;1.40;;;;;;;;;;5061055;28;20049;-79
2023/07/15 13:08:10;;;;;;;1.75;1.40;;;;;;;;;;5062809;28;20041;-79
2023/07/15 13:10:38;;;;;;;1.65;1.40;;;;;;;;;;5059382;28;20100;-80
2023/07/15 13:13:04;;;;;;;1.40;1.30;;;;;;;;;;5060455;28;20536;-79
2023/07/15 13:15:31;;;;;;;1.48;1.20;;;;;;;;;;5061969;28;20048;-80
2023/07/15 13:17:58;;;;;;;1.38;1.20;;;;;;;;;;5059775;28;20050;-80
2023/07/15 13:20:24;;;;;;;1.60;1.30;;;;;;;;;;5061418;28;20175;-80
2023/07/15 13:22:51;;;;;;;1.88;1.20;;;;;;;;;;5061235;28;20045;-80
2023/07/15 13:25:18;;;;;;;1.42;1.33;;;;;;;;;;5058987;28;20073;-79
2023/07/15 13:27:44;;;;;;;1.40;1.30;;;;;;;;;;5057104;28;20040;-79
2023/07/15 13:30:11;;;;;;;2.42;1.40;;;;;;;;;;5059482;28;20096;-79
2023/07/15 13:32:38;;;;;;;1.58;1.48;;;;;;;;;;5060380;28;20052;-79
2023/07/15 13:35:05;;;;;;;1.77;1.38;;;;;;;;;;5059856;28;20049;-81
2023/07/15 13:37:32;;;;;;;1.85;1.15;;;;;;;;;;5076861;28;20032;-80
2023/07/15 13:39:58;;;;;;;3.90;1.10;;;;;;;;;;5060096;28;20051;-79
2023/07/15 13:42:25;;;;;;;2.92;1.20;;;;;;;;;;5061612;28;20047;-79
2023/07/15 13:44:53;;;;;;;1.73;1.23;;;;;;;;;;5061183;28;20060;-80
2023/07/15 13:47:19;;;;;;;1.83;1.40;;;;;;;;;;5061149;28;20049;-79
2023/07/15 13:49:46;;;;;;;1.40;1.30;;;;;;;;;;5060050;28;20032;-79
2023/07/15 13:52:12;;;;;;;2.03;1.10;;;;;;;;;;5059627;28;20152;-78
2023/07/15 13:54:39;;;;;;;4.07;1.20;;;;;;;;;;5061615;28;20076;-78
2023/07/15 13:57:06;;;;;;;1.60;1.30;;;;;;;;;;5059644;28;20044;-79
2023/07/15 13:59:32;;;;;;;1.58;1.13;;;;;;;;;;5059215;28;20127;-78
2023/07/15 14:01:59;;;;;;;1.20;1.05;;;;;;;;;;5061437;28;20101;-80
2023/07/15 14:04:26;;;;;;;1.58;1.10;;;;;;;;;;5061636;28;20055;-78
2023/07/15 14:06:53;;;;;;;1.45;1.10;;;;;;;;;;5060365;28;20056;-78
2023/07/15 14:09:19;;;;;;;1.40;1.27;;;;;;;;;;5059723;28;20069;-78
2023/07/15 14:11:46;;;;;;;2.97;1.35;;;;;;;;;;5061673;28;20147;-78
2023/07/15 14:14:16;;;;;;;1.92;1.20;;;;;;;;;;5060961;28;20073;-79
2023/07/15 14:16:42;;;;;;;1.77;1.50;;;;;;;;;;5066290;28;20060;-80
2023/07/15 14:19:09;;;;;;;1.58;1.48;;;;;;;;;;5066418;28;20049;-80
2023/07/15 14:21:36;;;;;;;3.63;1.50;;;;;;;;;;5063748;28;20109;-81
2023/07/15 14:24:03;;;;;;;2.05;1.73;;;;;;;;;;5066373;28;20056;-80
2023/07/15 14:26:31;;;;;;;2.13;1.55;;;;;;;;;;5064316;28;20071;-80
2023/07/15 14:28:58;;;;;;;1.45;1.35;;;;;;;;;;5063016;28;20044;-77
2023/07/15 14:31:25;;;;;;;1.50;1.40;;;;;;;;;;5063488;28;20049;-78
2023/07/15 14:33:54;;;;;;;1.50;1.38;;;;;;;;;;5062714;28;20089;-79
2023/07/15 14:36:21;;;;;;;1.40;1.30;;;;;;;;;;5062700;28;20040;-78
2023/07/15 14:38:48;;;;;;;2.17;1.50;;;;;;;;;;5078978;28;20588;-79
2023/07/15 14:41:14;;;;;;;1.45;1.27;;;;;;;;;;5086347;28;20040;-80
2023/07/15 14:43:41;;;;;;;1.50;1.40;;;;;;;;;;5088758;28;20060;-79
2023/07/15 14:46:08;;;;;;;3.55;1.23;;;;;;;;;;5086722;28;20048;-78